Time;durP1;ratioP1;P1;durP2;ratioP2;P2;SDS_P1;SDS_P2;PMS_P1;PMS_P2;Temp;Humidity;BMP_temperature;BMP_pressure;BME280_temperature;BME280_humidity;BME280_pressure;Samples;Min_cycle;Max_cycle;Signal;HPM_P1;HPM_P2
2022/03/18 00:00:21;;;;;;;40.95;33.45;;;;;;;;;;4955994;28;24444;-51
2022/03/18 00:02:46;;;;;;;38.63;33.05;;;;;;;;;;4967175;28;24934;-51
2022/03/18 00:05:12;;;;;;;40.28;32.15;;;;;;;;;;4961415;28;24444;-52
2022/03/18 00:07:38;;;;;;;38.83;32.50;;;;;;;;;;4961269;28;24565;-51
2022/03/18 00:10:04;;;;;;;36.42;31.52;;;;;;;;;;4968318;28;24800;-51
2022/03/18 00:12:29;;;;;;;37.38;29.75;;;;;;;;;;4956876;28;24421;-51
2022/03/18 00:14:54;;;;;;;35.63;29.95;;;;;;;;;;4968030;28;24414;-52
2022/03/18 00:17:20;;;;;;;33.40;27.70;;;;;;;;;;4949563;28;24418;-51
2022/03/18 00:19:45;;;;;;;35.50;28.63;;;;;;;;;;4955262;28;24873;-51
2022/03/18 00:22:12;;;;;;;31.53;26.10;;;;;;;;;;4952080;28;24417;-51
2022/03/18 00:24:37;;;;;;;33.55;27.42;;;;;;;;;;4966180;28;24784;-52
2022/03/18 00:27:06;;;;;;;33.20;26.80;;;;;;;;;;4958373;28;24417;-51
2022/03/18 00:29:31;;;;;;;29.80;25.58;;;;;;;;;;4964904;28;25046;-51
2022/03/18 00:31:56;;;;;;;29.63;24.47;;;;;;;;;;4962550;28;24501;-51
2022/03/18 00:34:22;;;;;;;27.63;22.77;;;;;;;;;;4967072;28;24492;-51
2022/03/18 00:36:47;;;;;;;29.40;22.70;;;;;;;;;;4968488;28;24409;-50
2022/03/18 00:39:12;;;;;;;28.30;21.63;;;;;;;;;;4966262;28;24792;-51
2022/03/18 00:41:37;;;;;;;27.77;22.83;;;;;;;;;;4955947;28;24426;-52
2022/03/18 00:44:03;;;;;;;28.58;22.92;;;;;;;;;;4961439;28;24555;-51
2022/03/18 00:46:28;;;;;;;28.00;21.43;;;;;;;;;;4965332;28;24793;-51
2022/03/18 00:54:22;;;;;;;29.27;22.90;;;;;;;;;;4960011;28;24464;-52
2022/03/18 00:56:47;;;;;;;30.10;23.67;;;;;;;;;;4955445;28;24442;-51
2022/03/18 00:59:12;;;;;;;28.73;23.00;;;;;;;;;;4965418;28;24821;-51
2022/03/18 01:01:38;;;;;;;30.53;23.23;;;;;;;;;;4956589;28;24454;-51
2022/03/18 01:04:03;;;;;;;26.97;22.20;;;;;;;;;;4959400;28;24414;-51
2022/03/18 01:06:28;;;;;;;27.58;22.35;;;;;;;;;;4961826;28;24456;-51
2022/03/18 01:08:54;;;;;;;25.40;20.10;;;;;;;;;;4951467;28;24422;-51
2022/03/18 01:11:19;;;;;;;27.33;20.90;;;;;;;;;;4966368;28;24983;-51
2022/03/18 01:13:44;;;;;;;24.83;19.70;;;;;;;;;;4962098;28;24410;-51
2022/03/18 01:16:09;;;;;;;23.67;19.00;;;;;;;;;;4954218;28;24538;-51
2022/03/18 01:18:35;;;;;;;22.67;17.93;;;;;;;;;;4961766;28;25011;-51
2022/03/18 01:21:00;;;;;;;25.00;17.77;;;;;;;;;;4959958;28;24464;-50
2022/03/18 01:23:25;;;;;;;23.13;17.60;;;;;;;;;;4958455;28;24470;-51
2022/03/18 01:25:50;;;;;;;23.57;17.90;;;;;;;;;;4952696;28;24991;-50
2022/03/18 01:28:15;;;;;;;21.20;16.95;;;;;;;;;;4955451;28;24594;-51
2022/03/18 01:30:41;;;;;;;21.27;16.67;;;;;;;;;;4950358;28;24410;-50
2022/03/18 01:33:06;;;;;;;21.67;16.90;;;;;;;;;;4960768;28;24468;-50
2022/03/18 01:35:31;;;;;;;25.13;17.17;;;;;;;;;;4960746;28;24418;-51
2022/03/18 01:37:56;;;;;;;23.33;16.80;;;;;;;;;;4956241;28;25022;-50
2022/03/18 01:40:21;;;;;;;21.73;16.10;;;;;;;;;;4957053;28;24413;-50
2022/03/18 01:42:47;;;;;;;23.27;17.70;;;;;;;;;;4967747;28;24433;-51
2022/03/18 01:45:12;;;;;;;20.88;16.83;;;;;;;;;;4961647;28;24980;-50
2022/03/18 01:47:42;;;;;;;22.35;16.80;;;;;;;;;;4961030;28;24453;-50
2022/03/18 01:50:08;;;;;;;21.98;16.10;;;;;;;;;;4964670;28;24410;-49
2022/03/18 01:52:33;;;;;;;20.17;15.70;;;;;;;;;;4948593;28;24422;-51
2022/03/18 01:54:58;;;;;;;22.20;16.57;;;;;;;;;;4957729;28;24445;-50
2022/03/18 01:57:26;;;;;;;23.50;17.30;;;;;;;;;;4962321;28;24950;-50
2022/03/18 01:59:52;;;;;;;20.75;16.00;;;;;;;;;;4965731;28;24909;-50
2022/03/18 02:02:17;;;;;;;20.10;16.17;;;;;;;;;;4960341;28;24968;-50
2022/03/18 02:04:43;;;;;;;18.97;14.60;;;;;;;;;;4961926;28;24469;-49
2022/03/18 02:07:08;;;;;;;21.25;16.52;;;;;;;;;;4957136;28;24460;-50
2022/03/18 02:09:34;;;;;;;20.15;15.68;;;;;;;;;;4962833;28;24446;-56
2022/03/18 02:12:00;;;;;;;20.40;15.75;;;;;;;;;;4963149;28;24418;-50
2022/03/18 02:14:30;;;;;;;19.20;15.63;;;;;;;;;;4949660;28;24477;-51
2022/03/18 02:16:55;;;;;;;20.23;15.23;;;;;;;;;;4963955;28;24402;-51
2022/03/18 02:19:20;;;;;;;20.80;16.13;;;;;;;;;;4961047;28;24456;-50
2022/03/18 02:21:46;;;;;;;20.33;16.17;;;;;;;;;;4954867;28;24476;-50
2022/03/18 02:24:11;;;;;;;21.67;16.37;;;;;;;;;;4965805;28;24847;-51
2022/03/18 02:26:36;;;;;;;19.58;15.77;;;;;;;;;;4954312;28;24413;-51
2022/03/18 02:29:01;;;;;;;19.05;15.27;;;;;;;;;;4956487;28;24432;-50
2022/03/18 02:31:30;;;;;;;21.55;15.93;;;;;;;;;;4945595;28;24465;-50
2022/03/18 02:33:55;;;;;;;19.67;15.48;;;;;;;;;;4965279;28;24875;-50
2022/03/18 02:36:21;;;;;;;22.00;16.40;;;;;;;;;;4956581;28;24414;-54
2022/03/18 02:38:46;;;;;;;22.95;16.13;;;;;;;;;;4957139;28;24425;-51
2022/03/18 02:41:14;;;;;;;21.10;17.13;;;;;;;;;;4967974;28;24473;-50
2022/03/18 02:43:39;;;;;;;21.80;17.10;;;;;;;;;;4963045;28;24871;-50
2022/03/18 02:46:05;;;;;;;24.10;16.63;;;;;;;;;;4958618;28;24484;-50
2022/03/18 02:48:30;;;;;;;21.00;16.60;;;;;;;;;;4958229;28;24435;-50
2022/03/18 02:50:55;;;;;;;23.00;17.23;;;;;;;;;;4966744;28;24564;-50
2022/03/18 02:53:20;;;;;;;22.15;17.55;;;;;;;;;;4957873;28;24413;-51
2022/03/18 02:55:45;;;;;;;20.70;17.00;;;;;;;;;;4967488;28;24543;-50
2022/03/18 02:58:10;;;;;;;23.63;16.93;;;;;;;;;;4963630;28;24770;-50
2022/03/18 03:00:36;;;;;;;21.73;16.63;;;;;;;;;;4964901;28;24521;-50
2022/03/18 03:03:01;;;;;;;24.53;17.93;;;;;;;;;;4963121;28;24426;-50
2022/03/18 03:08:10;;;;;;;20.10;16.20;;;;;;;;;;4968682;28;24420;-51
2022/03/18 03:10:38;;;;;;;24.43;18.10;;;;;;;;;;4966505;28;24430;-51
2022/03/18 03:13:06;;;;;;;23.58;17.42;;;;;;;;;;4960469;28;24414;-50
2022/03/18 03:15:31;;;;;;;25.02;17.95;;;;;;;;;;4964599;28;24715;-50
2022/03/18 03:17:57;;;;;;;23.38;17.92;;;;;;;;;;4954768;28;25160;-50
2022/03/18 03:20:22;;;;;;;22.00;18.07;;;;;;;;;;4969189;28;24441;-50
2022/03/18 03:22:47;;;;;;;23.40;17.67;;;;;;;;;;4962603;28;25051;-51
2022/03/18 03:25:12;;;;;;;25.70;18.33;;;;;;;;;;4957630;28;24982;-50
2022/03/18 03:27:38;;;;;;;23.80;18.67;;;;;;;;;;4953557;28;24448;-51
2022/03/18 03:30:04;;;;;;;23.27;17.40;;;;;;;;;;4952500;28;24601;-50
2022/03/18 03:32:29;;;;;;;24.45;18.27;;;;;;;;;;4954684;28;24441;-50
2022/03/18 03:34:57;;;;;;;23.27;17.93;;;;;;;;;;4966145;28;24448;-51
2022/03/18 03:37:22;;;;;;;23.53;18.00;;;;;;;;;;4967802;28;24598;-50
2022/03/18 03:39:47;;;;;;;23.03;18.40;;;;;;;;;;4970561;28;24515;-50
2022/03/18 03:42:12;;;;;;;25.53;19.50;;;;;;;;;;4967520;28;24421;-50
2022/03/18 03:44:37;;;;;;;26.60;19.63;;;;;;;;;;4962157;28;24964;-49
2022/03/18 03:47:03;;;;;;;24.30;19.50;;;;;;;;;;4962031;28;24564;-50
2022/03/18 03:49:28;;;;;;;27.85;19.35;;;;;;;;;;4954353;28;24444;-50
2022/03/18 03:51:53;;;;;;;26.55;20.23;;;;;;;;;;4970424;28;24442;-50
2022/03/18 03:54:18;;;;;;;26.83;19.97;;;;;;;;;;4968581;28;24410;-51
2022/03/18 03:56:43;;;;;;;25.83;20.10;;;;;;;;;;4968934;28;24414;-50
2022/03/18 03:59:08;;;;;;;28.70;21.50;;;;;;;;;;4970021;28;24422;-50
2022/03/18 04:01:34;;;;;;;27.08;21.10;;;;;;;;;;4955568;28;24952;-50
2022/03/18 04:03:59;;;;;;;28.60;21.35;;;;;;;;;;4966679;28;24555;-50
2022/03/18 04:06:25;;;;;;;27.13;20.13;;;;;;;;;;4963087;28;24437;-50
2022/03/18 04:08:50;;;;;;;28.92;20.98;;;;;;;;;;4957084;28;24426;-50
2022/03/18 04:11:16;;;;;;;25.83;19.85;;;;;;;;;;4959348;28;24825;-51
2022/03/18 04:13:41;;;;;;;28.27;19.75;;;;;;;;;;4961981;28;24484;-50
2022/03/18 04:16:06;;;;;;;27.95;21.20;;;;;;;;;;4965655;28;24453;-50
2022/03/18 04:18:31;;;;;;;26.73;19.70;;;;;;;;;;4968294;28;24824;-51
2022/03/18 04:20:56;;;;;;;26.30;21.00;;;;;;;;;;4956828;28;24477;-51
2022/03/18 04:23:22;;;;;;;29.45;20.83;;;;;;;;;;4961974;28;24402;-51
2022/03/18 04:25:47;;;;;;;27.27;20.33;;;;;;;;;;4956925;28;24417;-51
2022/03/18 04:28:12;;;;;;;29.77;21.00;;;;;;;;;;4957669;28;25220;-51
2022/03/18 04:30:39;;;;;;;27.57;21.07;;;;;;;;;;4952907;28;24528;-51
2022/03/18 04:33:04;;;;;;;29.08;22.38;;;;;;;;;;4964417;28;24413;-52
2022/03/18 04:35:31;;;;;;;27.23;21.10;;;;;;;;;;4958742;28;24520;-50
2022/03/18 04:37:57;;;;;;;29.98;22.00;;;;;;;;;;4964514;28;24496;-51
2022/03/18 04:40:22;;;;;;;29.20;22.40;;;;;;;;;;4961702;28;24516;-50
2022/03/18 04:42:47;;;;;;;27.58;21.00;;;;;;;;;;4963806;28;24401;-50
2022/03/18 04:45:12;;;;;;;26.85;20.15;;;;;;;;;;4969593;28;24477;-51
2022/03/18 04:47:38;;;;;;;27.67;21.97;;;;;;;;;;4968237;28;24429;-56
2022/03/18 04:50:03;;;;;;;30.87;23.80;;;;;;;;;;4956367;28;24433;-50
2022/03/18 04:52:29;;;;;;;30.50;22.75;;;;;;;;;;4949713;28;24401;-51
2022/03/18 04:54:54;;;;;;;28.83;22.23;;;;;;;;;;4950113;28;24410;-50
2022/03/18 04:57:19;;;;;;;34.60;24.27;;;;;;;;;;4955114;28;24517;-50
2022/03/18 04:59:45;;;;;;;30.60;21.83;;;;;;;;;;4961704;28;24418;-51
2022/03/18 05:02:11;;;;;;;29.52;22.70;;;;;;;;;;4969023;28;24513;-50
2022/03/18 05:04:36;;;;;;;28.75;22.10;;;;;;;;;;4957716;28;24539;-51
2022/03/18 05:07:03;;;;;;;26.63;20.70;;;;;;;;;;4956226;28;24757;-52
2022/03/18 05:09:28;;;;;;;34.88;25.52;;;;;;;;;;4956515;28;24843;-51
2022/03/18 05:11:53;;;;;;;28.67;22.00;;;;;;;;;;4958972;28;24980;-52
2022/03/18 05:14:18;;;;;;;29.75;23.15;;;;;;;;;;4957139;28;24901;-51
2022/03/18 05:16:43;;;;;;;30.98;23.45;;;;;;;;;;4956194;28;24949;-52
2022/03/18 05:19:09;;;;;;;29.23;21.88;;;;;;;;;;4966821;28;24512;-51
2022/03/18 05:21:34;;;;;;;30.70;24.50;;;;;;;;;;4958577;28;24735;-51
2022/03/18 05:23:59;;;;;;;31.40;24.57;;;;;;;;;;4966410;28;24428;-51
2022/03/18 05:26:25;;;;;;;31.90;25.33;;;;;;;;;;4959283;28;24481;-51
2022/03/18 05:28:50;;;;;;;31.83;24.00;;;;;;;;;;4954351;28;24414;-51
2022/03/18 05:31:15;;;;;;;27.98;22.42;;;;;;;;;;4963711;28;24441;-51
2022/03/18 05:33:40;;;;;;;30.30;23.80;;;;;;;;;;4961155;28;24402;-51
2022/03/18 05:36:05;;;;;;;32.50;24.70;;;;;;;;;;4958768;28;25065;-50
2022/03/18 05:38:30;;;;;;;36.77;27.47;;;;;;;;;;4958011;28;24522;-51
2022/03/18 05:40:56;;;;;;;37.08;27.92;;;;;;;;;;4952648;28;24464;-51
2022/03/18 05:43:21;;;;;;;38.00;29.97;;;;;;;;;;4960326;28;24417;-50
2022/03/18 05:45:46;;;;;;;36.93;29.17;;;;;;;;;;4954468;28;24414;-51
2022/03/18 05:48:12;;;;;;;36.00;28.02;;;;;;;;;;4945835;28;24782;-51
2022/03/18 05:50:37;;;;;;;37.17;27.92;;;;;;;;;;4963016;28;24456;-54
2022/03/18 05:53:02;;;;;;;38.60;29.15;;;;;;;;;;4963657;28;24441;-51
2022/03/18 05:56:52;;;;;;;36.78;28.63;;;;;;;;;;4962623;28;25132;-51
2022/03/18 05:58:14;;;;;;;42.45;32.13;;;;;;;;;;4965598;28;24409;-50
2022/03/18 06:00:39;;;;;;;47.60;36.90;;;;;;;;;;4959470;28;24421;-51
2022/03/18 06:03:05;;;;;;;50.72;37.50;;;;;;;;;;4954360;28;24535;-52
2022/03/18 06:05:30;;;;;;;45.50;36.43;;;;;;;;;;4950466;28;25339;-50
2022/03/18 06:11:48;;;;;;;43.85;35.30;;;;;;;;;;4962067;28;25050;-51
2022/03/18 06:13:24;;;;;;;46.50;35.03;;;;;;;;;;4961788;28;24804;-50
2022/03/18 06:15:50;;;;;;;43.28;33.92;;;;;;;;;;4963335;28;24916;-50
2022/03/18 06:18:15;;;;;;;46.30;35.75;;;;;;;;;;4951125;28;24987;-52
2022/03/18 06:20:40;;;;;;;43.47;34.60;;;;;;;;;;4955578;28;24505;-50
2022/03/18 06:23:05;;;;;;;47.97;37.00;;;;;;;;;;4966229;28;25228;-50
2022/03/18 06:25:30;;;;;;;49.53;37.40;;;;;;;;;;4966777;28;24447;-51
2022/03/18 06:27:55;;;;;;;48.78;37.56;;;;;;;;;;4968152;28;24426;-51
2022/03/18 06:30:20;;;;;;;46.53;35.73;;;;;;;;;;4967855;28;24891;-51
2022/03/18 06:32:46;;;;;;;41.67;34.43;;;;;;;;;;4968281;28;24398;-51
2022/03/18 06:35:11;;;;;;;49.05;38.25;;;;;;;;;;4966731;28;24417;-50
2022/03/18 06:37:36;;;;;;;51.85;39.70;;;;;;;;;;4969206;28;24414;-50
2022/03/18 06:40:01;;;;;;;49.90;38.60;;;;;;;;;;4970146;28;24916;-51
2022/03/18 06:42:26;;;;;;;51.10;38.37;;;;;;;;;;4971606;28;24462;-51
2022/03/18 06:44:51;;;;;;;48.03;38.07;;;;;;;;;;4967012;28;24414;-51
2022/03/18 06:47:16;;;;;;;51.10;39.33;;;;;;;;;;4968311;28;24526;-50
2022/03/18 06:49:42;;;;;;;49.20;39.08;;;;;;;;;;4964640;28;24426;-50
2022/03/18 06:52:07;;;;;;;48.90;40.50;;;;;;;;;;4952383;28;24490;-51
2022/03/18 06:54:32;;;;;;;47.50;38.35;;;;;;;;;;4952511;28;24769;-51
2022/03/18 06:56:57;;;;;;;48.30;37.88;;;;;;;;;;4952109;28;24399;-51
2022/03/18 06:59:22;;;;;;;47.97;38.67;;;;;;;;;;4955147;28;24491;-52
2022/03/18 07:01:47;;;;;;;49.20;38.85;;;;;;;;;;4960342;28;24453;-51
2022/03/18 07:04:13;;;;;;;48.15;39.47;;;;;;;;;;4956381;28;24420;-51
2022/03/18 07:06:38;;;;;;;47.92;39.85;;;;;;;;;;4971489;28;24418;-51
2022/03/18 07:09:03;;;;;;;47.97;38.08;;;;;;;;;;4952713;28;24426;-51
2022/03/18 07:11:28;;;;;;;50.42;38.35;;;;;;;;;;4965168;28;24406;-51
2022/03/18 07:13:54;;;;;;;46.10;37.00;;;;;;;;;;4959094;28;24570;-51
2022/03/18 07:19:03;;;;;;;43.00;36.67;;;;;;;;;;4951816;28;24775;-51
2022/03/18 07:21:28;;;;;;;40.92;34.30;;;;;;;;;;4952861;28;24978;-51
2022/03/18 07:23:53;;;;;;;41.20;33.87;;;;;;;;;;4971236;28;24472;-51
2022/03/18 07:26:18;;;;;;;43.53;35.53;;;;;;;;;;4956431;28;24410;-51
2022/03/18 07:28:43;;;;;;;43.90;36.20;;;;;;;;;;4970045;28;24425;-52
2022/03/18 07:31:09;;;;;;;44.17;36.80;;;;;;;;;;4966789;28;24464;-52
2022/03/18 07:33:34;;;;;;;41.90;35.67;;;;;;;;;;4952164;28;24448;-52
2022/03/18 07:35:59;;;;;;;47.27;36.70;;;;;;;;;;4963656;28;25015;-51
2022/03/18 07:38:24;;;;;;;44.50;34.00;;;;;;;;;;4970478;28;24963;-51
2022/03/18 07:40:49;;;;;;;43.28;37.10;;;;;;;;;;4968609;28;24696;-51
2022/03/18 07:43:14;;;;;;;45.93;35.87;;;;;;;;;;4970623;28;24480;-51
2022/03/18 07:45:40;;;;;;;43.60;35.13;;;;;;;;;;4969327;28;24500;-51
2022/03/18 07:48:07;;;;;;;43.17;34.20;;;;;;;;;;4970552;28;24430;-51
2022/03/18 07:50:33;;;;;;;42.13;34.00;;;;;;;;;;4969510;28;24417;-50
2022/03/18 07:52:59;;;;;;;43.85;34.55;;;;;;;;;;4969792;28;24410;-51
2022/03/18 07:55:24;;;;;;;43.50;35.10;;;;;;;;;;4969324;28;24669;-52
2022/03/18 07:57:50;;;;;;;39.10;31.60;;;;;;;;;;4970327;28;24477;-52
2022/03/18 08:00:15;;;;;;;37.77;33.10;;;;;;;;;;4970265;28;24496;-52
2022/03/18 08:02:41;;;;;;;39.83;32.28;;;;;;;;;;4970620;28;24408;-51
2022/03/18 08:05:07;;;;;;;42.67;35.00;;;;;;;;;;4969868;28;24468;-51
2022/03/18 08:07:33;;;;;;;40.00;31.77;;;;;;;;;;4969738;28;24942;-51
2022/03/18 08:09:58;;;;;;;40.97;33.92;;;;;;;;;;4969369;28;24452;-51
2022/03/18 08:12:23;;;;;;;41.00;33.10;;;;;;;;;;4970149;28;24869;-52
2022/03/18 08:14:48;;;;;;;38.17;31.97;;;;;;;;;;4970088;28;24464;-51
2022/03/18 08:17:14;;;;;;;36.00;31.23;;;;;;;;;;4968861;28;25388;-51
2022/03/18 08:19:39;;;;;;;41.80;32.20;;;;;;;;;;4969583;28;24468;-52
2022/03/18 08:22:04;;;;;;;43.67;32.90;;;;;;;;;;4969809;28;24479;-51
2022/03/18 08:24:30;;;;;;;40.33;33.83;;;;;;;;;;4969994;28;24397;-51
2022/03/18 08:26:55;;;;;;;40.78;34.08;;;;;;;;;;4968021;28;24423;-51
2022/03/18 08:29:20;;;;;;;39.67;32.83;;;;;;;;;;4969911;28;24952;-52
2022/03/18 08:31:45;;;;;;;39.35;32.75;;;;;;;;;;4969771;28;24433;-51
2022/03/18 08:34:10;;;;;;;42.55;35.42;;;;;;;;;;4969494;28;24409;-51
2022/03/18 08:36:35;;;;;;;42.15;35.10;;;;;;;;;;4969749;28;24975;-52
2022/03/18 08:39:01;;;;;;;43.83;33.85;;;;;;;;;;4967872;28;24445;-52
2022/03/18 08:41:26;;;;;;;38.90;34.20;;;;;;;;;;4969280;28;24460;-50
2022/03/18 08:43:51;;;;;;;41.20;33.83;;;;;;;;;;4969490;28;25155;-51
2022/03/18 08:46:16;;;;;;;42.28;36.10;;;;;;;;;;4969191;28;24394;-51
2022/03/18 08:48:43;;;;;;;44.73;34.67;;;;;;;;;;4968171;28;24533;-51
2022/03/18 08:51:08;;;;;;;42.42;35.78;;;;;;;;;;4969150;28;24990;-51
2022/03/18 08:53:33;;;;;;;39.17;34.23;;;;;;;;;;4969215;28;24389;-51
2022/03/18 08:55:59;;;;;;;42.70;34.30;;;;;;;;;;4969136;28;24888;-51
2022/03/18 08:58:25;;;;;;;39.70;32.95;;;;;;;;;;4968075;28;24496;-51
2022/03/18 09:00:50;;;;;;;40.67;34.03;;;;;;;;;;4968823;28;24493;-50
2022/03/18 09:03:15;;;;;;;40.70;33.30;;;;;;;;;;4969126;28;24448;-52
2022/03/18 09:05:42;;;;;;;40.67;33.67;;;;;;;;;;4969615;28;24385;-51
2022/03/18 09:08:07;;;;;;;40.15;33.85;;;;;;;;;;4968792;28;24386;-51
2022/03/18 09:10:32;;;;;;;38.67;32.50;;;;;;;;;;4967276;28;24480;-52
2022/03/18 09:13:01;;;;;;;41.92;35.17;;;;;;;;;;4968929;28;24393;-52
2022/03/18 09:15:27;;;;;;;40.83;33.30;;;;;;;;;;4969306;28;24381;-51
2022/03/18 09:17:52;;;;;;;42.58;33.25;;;;;;;;;;4960596;28;24538;-51
2022/03/18 09:20:18;;;;;;;39.00;31.85;;;;;;;;;;4949871;28;25044;-52
2022/03/18 09:22:43;;;;;;;38.57;33.23;;;;;;;;;;4958112;28;24418;-52
2022/03/18 09:25:08;;;;;;;40.50;34.50;;;;;;;;;;4968605;28;24390;-52
2022/03/18 09:27:33;;;;;;;37.50;33.30;;;;;;;;;;4968981;28;24920;-51
2022/03/18 09:30:00;;;;;;;42.23;35.13;;;;;;;;;;4967883;28;24417;-51
2022/03/18 09:32:25;;;;;;;40.83;33.10;;;;;;;;;;4967979;28;24409;-51
2022/03/18 09:34:50;;;;;;;40.45;32.78;;;;;;;;;;4968940;28;24417;-52
2022/03/18 09:37:15;;;;;;;39.08;33.42;;;;;;;;;;4968334;28;24409;-51
2022/03/18 09:39:40;;;;;;;36.28;30.58;;;;;;;;;;4968622;28;24421;-52
2022/03/18 09:42:07;;;;;;;38.20;34.00;;;;;;;;;;4969314;28;24932;-52
2022/03/18 09:44:39;;;;;;;39.83;34.20;;;;;;;;;;4967290;28;24418;-52
2022/03/18 09:47:05;;;;;;;38.47;32.80;;;;;;;;;;4968549;28;24437;-52
2022/03/18 09:49:30;;;;;;;41.45;34.05;;;;;;;;;;4968230;28;24424;-52
2022/03/18 09:51:55;;;;;;;39.10;34.17;;;;;;;;;;4968962;28;24866;-51
2022/03/18 09:54:21;;;;;;;41.60;35.20;;;;;;;;;;4966555;28;24947;-52
2022/03/18 09:56:47;;;;;;;38.20;34.00;;;;;;;;;;4968498;28;25079;-51
2022/03/18 09:59:12;;;;;;;39.45;32.22;;;;;;;;;;4968869;28;24488;-51
2022/03/18 10:01:37;;;;;;;37.13;32.70;;;;;;;;;;4968053;28;24500;-52
2022/03/18 10:04:03;;;;;;;38.83;33.80;;;;;;;;;;4967839;28;24995;-51
2022/03/18 10:06:29;;;;;;;36.40;31.90;;;;;;;;;;4968518;28;24417;-51
2022/03/18 10:08:55;;;;;;;34.50;30.80;;;;;;;;;;4968206;28;24978;-52
2022/03/18 10:11:22;;;;;;;39.55;32.47;;;;;;;;;;4968196;28;24402;-52
2022/03/18 10:13:56;;;;;;;35.78;31.55;;;;;;;;;;4967497;28;24402;-52
2022/03/18 10:16:30;;;;;;;36.60;32.58;;;;;;;;;;4949054;28;24509;-51
2022/03/18 10:18:55;;;;;;;35.90;30.63;;;;;;;;;;4948837;28;24462;-53
2022/03/18 10:21:20;;;;;;;34.97;30.40;;;;;;;;;;4948765;28;24481;-52
2022/03/18 10:23:45;;;;;;;39.17;33.17;;;;;;;;;;4948530;28;24420;-52
2022/03/18 10:26:13;;;;;;;35.60;30.92;;;;;;;;;;4964577;28;24405;-52
2022/03/18 10:28:43;;;;;;;32.60;29.05;;;;;;;;;;4968006;28;24991;-52
2022/03/18 10:31:08;;;;;;;35.40;31.58;;;;;;;;;;4967772;28;24477;-52
2022/03/18 10:39:28;;;;;;;34.97;31.13;;;;;;;;;;4967987;28;24393;-49
2022/03/18 10:41:54;;;;;;;37.22;33.03;;;;;;;;;;4967494;28;24386;-51
2022/03/18 10:44:19;;;;;;;35.23;31.43;;;;;;;;;;4967838;28;24464;-52
2022/03/18 10:46:45;;;;;;;34.88;31.27;;;;;;;;;;4966683;28;24441;-53
2022/03/18 10:49:10;;;;;;;33.87;30.17;;;;;;;;;;4968088;28;24414;-57
2022/03/18 10:51:35;;;;;;;38.33;33.17;;;;;;;;;;4967858;28;24763;-52
2022/03/18 10:54:01;;;;;;;39.93;33.43;;;;;;;;;;4967879;28;24389;-52
2022/03/18 10:56:26;;;;;;;39.90;33.27;;;;;;;;;;4965832;28;24420;-53
2022/03/18 10:58:52;;;;;;;36.25;32.35;;;;;;;;;;4968054;28;24745;-53
2022/03/18 11:01:18;;;;;;;38.57;33.30;;;;;;;;;;4967216;28;24402;-52
2022/03/18 11:03:45;;;;;;;35.13;30.77;;;;;;;;;;4967686;28;24777;-53
2022/03/18 11:06:10;;;;;;;37.42;33.40;;;;;;;;;;4967758;28;24390;-59
2022/03/18 11:08:44;;;;;;;35.67;30.40;;;;;;;;;;4966335;28;24425;-52
2022/03/18 11:11:14;;;;;;;36.35;31.27;;;;;;;;;;4967981;28;24409;-53
2022/03/18 11:13:39;;;;;;;36.03;32.17;;;;;;;;;;4967899;28;24398;-52
2022/03/18 11:16:05;;;;;;;35.93;32.10;;;;;;;;;;4967630;28;24489;-52
2022/03/18 11:18:30;;;;;;;36.83;32.15;;;;;;;;;;4966080;28;24410;-52
2022/03/18 11:20:56;;;;;;;35.53;31.73;;;;;;;;;;4967666;28;24429;-57
2022/03/18 11:23:25;;;;;;;36.22;32.25;;;;;;;;;;4967461;28;24995;-52
2022/03/18 11:25:51;;;;;;;37.03;31.63;;;;;;;;;;4970179;28;24405;-52
2022/03/18 11:28:18;;;;;;;36.03;32.13;;;;;;;;;;4969366;28;24528;-52
2022/03/18 11:30:44;;;;;;;35.37;31.67;;;;;;;;;;4970868;28;24426;-52
2022/03/18 11:33:09;;;;;;;34.08;29.25;;;;;;;;;;4970970;28;24937;-52
2022/03/18 11:35:52;;;;;;;32.27;28.77;;;;;;;;;;4971314;28;24676;-52
2022/03/18 11:38:19;;;;;;;31.50;28.20;;;;;;;;;;4968742;28;24416;-52
2022/03/18 11:40:50;;;;;;;34.63;30.95;;;;;;;;;;4970704;28;24410;-52
2022/03/18 11:43:34;;;;;;;35.97;31.70;;;;;;;;;;4970565;28;24448;-52
2022/03/18 11:46:12;;;;;;;35.77;31.97;;;;;;;;;;4970892;28;24389;-52
2022/03/18 11:48:37;;;;;;;35.53;31.92;;;;;;;;;;4969385;28;24405;-52
2022/03/18 11:51:21;;;;;;;33.03;29.63;;;;;;;;;;4970324;28;24982;-52
2022/03/18 11:53:51;;;;;;;34.05;30.48;;;;;;;;;;4970759;28;24400;-52
2022/03/18 11:56:18;;;;;;;36.03;32.33;;;;;;;;;;4970296;28;24951;-52
2022/03/18 11:58:43;;;;;;;35.83;32.17;;;;;;;;;;4970719;28;24413;-52
2022/03/18 12:01:28;;;;;;;36.40;32.60;;;;;;;;;;4969194;28;24406;-52
2022/03/18 12:03:54;;;;;;;38.13;32.95;;;;;;;;;;4969992;28;24413;-52
2022/03/18 12:06:20;;;;;;;36.15;31.85;;;;;;;;;;4970476;28;24398;-52
2022/03/18 12:08:54;;;;;;;34.10;30.50;;;;;;;;;;4970567;28;24405;-52
2022/03/18 12:11:29;;;;;;;37.30;33.20;;;;;;;;;;4968902;28;24406;-52
2022/03/18 12:13:54;;;;;;;35.80;32.10;;;;;;;;;;4970042;28;24553;-53
2022/03/18 12:16:20;;;;;;;35.53;31.83;;;;;;;;;;4970434;28;24406;-52
2022/03/18 12:18:46;;;;;;;35.75;31.85;;;;;;;;;;4970370;28;24394;-53
2022/03/18 12:21:11;;;;;;;36.33;32.43;;;;;;;;;;4968783;28;24944;-53
2022/03/18 12:23:36;;;;;;;36.22;32.42;;;;;;;;;;4969988;28;24422;-51
2022/03/18 12:26:05;;;;;;;35.28;31.48;;;;;;;;;;4969888;28;24437;-52
2022/03/18 12:28:43;;;;;;;33.17;29.67;;;;;;;;;;4960733;28;24407;-52
2022/03/18 12:31:14;;;;;;;34.45;30.80;;;;;;;;;;4950412;29;24421;-52
2022/03/18 12:33:40;;;;;;;34.97;31.47;;;;;;;;;;4950567;28;24474;-52
2022/03/18 12:36:05;;;;;;;33.13;29.63;;;;;;;;;;4950728;28;24792;-52
2022/03/18 12:38:31;;;;;;;32.60;29.30;;;;;;;;;;4955773;28;24409;-52
2022/03/18 12:40:58;;;;;;;32.30;28.95;;;;;;;;;;4967371;28;25006;-50
2022/03/18 12:43:25;;;;;;;34.77;31.07;;;;;;;;;;4966865;28;24967;-52
2022/03/18 12:45:50;;;;;;;31.63;28.42;;;;;;;;;;4969916;28;24468;-52
2022/03/18 12:48:16;;;;;;;33.80;30.20;;;;;;;;;;4969320;28;24429;-52
2022/03/18 12:50:44;;;;;;;35.97;32.07;;;;;;;;;;4969521;28;24636;-52
2022/03/18 12:53:17;;;;;;;32.90;29.50;;;;;;;;;;4967225;28;24836;-52
2022/03/18 12:55:43;;;;;;;30.45;27.35;;;;;;;;;;4950068;28;24453;-52
2022/03/18 12:58:08;;;;;;;33.55;30.35;;;;;;;;;;4950545;28;24463;-51
2022/03/18 13:00:40;;;;;;;33.67;30.13;;;;;;;;;;4949873;28;25008;-52
2022/03/18 13:03:09;;;;;;;31.33;28.23;;;;;;;;;;4949874;28;24505;-50
2022/03/18 13:05:35;;;;;;;30.50;27.40;;;;;;;;;;4950127;28;25302;-50
2022/03/18 13:08:07;;;;;;;33.40;30.00;;;;;;;;;;4950054;28;24534;-50
2022/03/18 13:10:32;;;;;;;32.88;29.27;;;;;;;;;;4949701;28;25038;-50
2022/03/18 13:13:08;;;;;;;35.40;31.80;;;;;;;;;;4949407;28;24461;-51
2022/03/18 13:15:34;;;;;;;34.80;31.10;;;;;;;;;;4963220;28;24513;-50
2022/03/18 13:18:09;;;;;;;32.75;29.45;;;;;;;;;;4968720;28;24432;-51
2022/03/18 13:20:35;;;;;;;33.30;29.80;;;;;;;;;;4968477;28;24536;-51
2022/03/18 13:23:00;;;;;;;34.23;30.83;;;;;;;;;;4968700;28;24422;-51
2022/03/18 13:25:26;;;;;;;34.97;31.27;;;;;;;;;;4967708;28;24445;-50
2022/03/18 13:27:52;;;;;;;31.77;28.47;;;;;;;;;;4954497;28;24447;-50
2022/03/18 13:33:05;;;;;;;35.75;32.15;;;;;;;;;;4958971;28;25038;-50
2022/03/18 13:35:31;;;;;;;33.15;29.77;;;;;;;;;;4968882;28;24413;-52
2022/03/18 13:38:09;;;;;;;36.90;33.00;;;;;;;;;;4968495;28;24935;-50
2022/03/18 13:40:36;;;;;;;32.80;29.50;;;;;;;;;;4968608;28;24385;-50
2022/03/18 13:43:04;;;;;;;33.35;29.85;;;;;;;;;;4966712;28;25046;-51
2022/03/18 13:45:30;;;;;;;34.03;30.20;;;;;;;;;;4968264;28;24402;-50
2022/03/18 13:47:55;;;;;;;34.22;30.52;;;;;;;;;;4967765;28;24982;-51
2022/03/18 13:50:20;;;;;;;33.63;30.13;;;;;;;;;;4968272;28;24505;-50
2022/03/18 13:52:48;;;;;;;33.33;29.83;;;;;;;;;;4967077;28;24448;-51
2022/03/18 13:55:30;;;;;;;29.27;26.35;;;;;;;;;;4968672;28;24991;-50
2022/03/18 13:57:55;;;;;;;34.95;31.25;;;;;;;;;;4968226;28;24492;-50
2022/03/18 14:00:24;;;;;;;35.63;31.83;;;;;;;;;;4968242;28;24389;-50
2022/03/18 14:02:58;;;;;;;34.58;30.98;;;;;;;;;;4968245;28;24924;-50
2022/03/18 14:05:23;;;;;;;35.33;31.48;;;;;;;;;;4949253;28;24409;-50
2022/03/18 14:07:49;;;;;;;34.40;30.90;;;;;;;;;;4948066;28;24750;-50
2022/03/18 14:10:16;;;;;;;32.43;28.93;;;;;;;;;;4948925;28;24778;-50
2022/03/18 14:13:05;;;;;;;32.60;29.10;;;;;;;;;;4948981;28;24437;-51
2022/03/18 14:15:32;;;;;;;31.67;28.38;;;;;;;;;;4951415;28;24489;-50
2022/03/18 14:18:02;;;;;;;35.73;32.03;;;;;;;;;;4949000;28;24422;-50
2022/03/18 14:20:28;;;;;;;35.40;31.60;;;;;;;;;;4949279;28;24429;-50
2022/03/18 14:22:54;;;;;;;33.85;30.15;;;;;;;;;;4948596;28;24417;-50
2022/03/18 14:25:20;;;;;;;33.83;30.13;;;;;;;;;;4961244;28;24410;-51
2022/03/18 14:27:46;;;;;;;34.90;31.20;;;;;;;;;;4967992;28;24400;-51
2022/03/18 14:30:21;;;;;;;31.83;28.63;;;;;;;;;;4968046;28;25006;-50
2022/03/18 14:32:47;;;;;;;33.55;30.05;;;;;;;;;;4967604;28;24386;-50